sensor_id;sensor_type;location;lat;lon;timestamp;P1;durP1;ratioP1;P2;durP2;ratioP2
5379;SDS011;2713;42.680;23.310;2022-12-07T00:01:51;21.20;;;14.20;;
5379;SDS011;2713;42.680;23.310;2022-12-07T00:04:19;22.87;;;13.30;;
5379;SDS011;2713;42.680;23.310;2022-12-07T00:06:46;24.10;;;14.90;;
5379;SDS011;2713;42.680;23.310;2022-12-07T00:09:17;26.70;;;13.73;;
5379;SDS011;2713;42.680;23.310;2022-12-07T00:11:44;21.27;;;14.27;;
5379;SDS011;2713;42.680;23.310;2022-12-07T00:14:15;23.80;;;15.03;;
5379;SDS011;2713;42.680;23.310;2022-12-07T00:16:43;21.20;;;13.97;;
5379;SDS011;2713;42.680;23.310;2022-12-07T00:19:11;25.63;;;15.10;;
5379;SDS011;2713;42.680;23.310;2022-12-07T00:21:40;20.43;;;13.90;;
5379;SDS011;2713;42.680;23.310;2022-12-07T00:24:07;24.37;;;13.80;;
5379;SDS011;2713;42.680;23.310;2022-12-07T00:26:36;26.60;;;15.20;;
5379;SDS011;2713;42.680;23.310;2022-12-07T00:29:06;23.40;;;14.47;;
5379;SDS011;2713;42.680;23.310;2022-12-07T00:31:36;24.10;;;13.77;;
5379;SDS011;2713;42.680;23.310;2022-12-07T00:34:04;25.33;;;14.20;;
5379;SDS011;2713;42.680;23.310;2022-12-07T00:36:32;25.00;;;13.20;;
5379;SDS011;2713;42.680;23.310;2022-12-07T00:39:00;21.00;;;13.47;;
5379;SDS011;2713;42.680;23.310;2022-12-07T00:41:29;29.30;;;13.13;;
5379;SDS011;2713;42.680;23.310;2022-12-07T00:43:56;23.13;;;13.00;;
5379;SDS011;2713;42.680;23.310;2022-12-07T00:46:23;19.67;;;13.43;;
5379;SDS011;2713;42.680;23.310;2022-12-07T00:48:51;25.00;;;14.00;;
5379;SDS011;2713;42.680;23.310;2022-12-07T00:51:19;23.10;;;14.13;;
5379;SDS011;2713;42.680;23.310;2022-12-07T00:53:48;21.90;;;14.17;;
5379;SDS011;2713;42.680;23.310;2022-12-07T00:56:16;21.00;;;13.60;;
5379;SDS011;2713;42.680;23.310;2022-12-07T00:58:48;21.47;;;14.17;;
5379;SDS011;2713;42.680;23.310;2022-12-07T01:01:16;23.93;;;14.33;;
5379;SDS011;2713;42.680;23.310;2022-12-07T01:03:43;21.37;;;13.90;;
5379;SDS011;2713;42.680;23.310;2022-12-07T01:06:10;21.90;;;14.07;;
5379;SDS011;2713;42.680;23.310;2022-12-07T01:08:40;24.83;;;15.07;;
5379;SDS011;2713;42.680;23.310;2022-12-07T01:11:09;22.30;;;14.03;;
5379;SDS011;2713;42.680;23.310;2022-12-07T01:13:39;20.03;;;13.90;;
5379;SDS011;2713;42.680;23.310;2022-12-07T01:16:06;20.50;;;13.93;;
5379;SDS011;2713;42.680;23.310;2022-12-07T01:18:35;21.40;;;13.60;;
5379;SDS011;2713;42.680;23.310;2022-12-07T01:21:03;24.83;;;14.40;;
5379;SDS011;2713;42.680;23.310;2022-12-07T01:23:31;23.33;;;14.00;;
5379;SDS011;2713;42.680;23.310;2022-12-07T01:26:00;20.50;;;13.90;;
5379;SDS011;2713;42.680;23.310;2022-12-07T01:28:31;24.70;;;13.27;;
5379;SDS011;2713;42.680;23.310;2022-12-07T01:31:00;19.03;;;13.43;;
5379;SDS011;2713;42.680;23.310;2022-12-07T01:33:29;23.00;;;14.37;;
5379;SDS011;2713;42.680;23.310;2022-12-07T01:36:00;27.90;;;15.10;;
5379;SDS011;2713;42.680;23.310;2022-12-07T01:38:29;23.77;;;14.87;;
5379;SDS011;2713;42.680;23.310;2022-12-07T01:40:56;21.67;;;14.00;;
5379;SDS011;2713;42.680;23.310;2022-12-07T01:43:23;21.97;;;14.30;;
5379;SDS011;2713;42.680;23.310;2022-12-07T01:45:52;21.93;;;15.03;;
5379;SDS011;2713;42.680;23.310;2022-12-07T01:48:22;28.37;;;14.27;;
5379;SDS011;2713;42.680;23.310;2022-12-07T01:50:52;21.17;;;13.90;;
5379;SDS011;2713;42.680;23.310;2022-12-07T01:53:22;24.03;;;13.97;;
5379;SDS011;2713;42.680;23.310;2022-12-07T01:55:53;21.93;;;14.37;;
5379;SDS011;2713;42.680;23.310;2022-12-07T01:58:22;28.70;;;15.13;;
5379;SDS011;2713;42.680;23.310;2022-12-07T02:00:50;22.30;;;16.00;;
5379;SDS011;2713;42.680;23.310;2022-12-07T02:03:18;25.80;;;16.90;;
5379;SDS011;2713;42.680;23.310;2022-12-07T02:05:49;29.80;;;18.30;;
5379;SDS011;2713;42.680;23.310;2022-12-07T02:08:17;27.07;;;16.30;;
5379;SDS011;2713;42.680;23.310;2022-12-07T02:10:44;25.47;;;16.77;;
5379;SDS011;2713;42.680;23.310;2022-12-07T02:13:12;27.30;;;16.63;;
5379;SDS011;2713;42.680;23.310;2022-12-07T02:15:45;28.10;;;17.70;;
5379;SDS011;2713;42.680;23.310;2022-12-07T02:18:32;27.90;;;16.90;;
5379;SDS011;2713;42.680;23.310;2022-12-07T02:21:11;29.63;;;18.93;;
5379;SDS011;2713;42.680;23.310;2022-12-07T02:24:05;32.03;;;19.27;;
5379;SDS011;2713;42.680;23.310;2022-12-07T02:29:46;28.63;;;17.23;;
5379;SDS011;2713;42.680;23.310;2022-12-07T02:32:21;27.13;;;17.83;;
5379;SDS011;2713;42.680;23.310;2022-12-07T02:34:54;29.60;;;17.93;;
5379;SDS011;2713;42.680;23.310;2022-12-07T02:37:29;28.43;;;19.23;;
5379;SDS011;2713;42.680;23.310;2022-12-07T02:40:04;31.70;;;18.77;;
5379;SDS011;2713;42.680;23.310;2022-12-07T02:42:37;32.30;;;19.23;;
5379;SDS011;2713;42.680;23.310;2022-12-07T02:45:08;27.70;;;18.13;;
5379;SDS011;2713;42.680;23.310;2022-12-07T02:47:39;31.30;;;20.10;;
5379;SDS011;2713;42.680;23.310;2022-12-07T02:50:09;30.23;;;18.87;;
5379;SDS011;2713;42.680;23.310;2022-12-07T02:52:37;31.63;;;19.97;;
5379;SDS011;2713;42.680;23.310;2022-12-07T02:55:04;32.10;;;20.53;;
5379;SDS011;2713;42.680;23.310;2022-12-07T02:57:37;30.77;;;20.20;;
5379;SDS011;2713;42.680;23.310;2022-12-07T03:00:16;28.10;;;19.43;;
5379;SDS011;2713;42.680;23.310;2022-12-07T03:02:50;30.90;;;19.40;;
5379;SDS011;2713;42.680;23.310;2022-12-07T03:08:12;31.93;;;18.83;;
5379;SDS011;2713;42.680;23.310;2022-12-07T03:10:46;32.40;;;19.57;;
5379;SDS011;2713;42.680;23.310;2022-12-07T03:13:22;31.47;;;20.43;;
5379;SDS011;2713;42.680;23.310;2022-12-07T03:15:57;32.47;;;21.27;;
5379;SDS011;2713;42.680;23.310;2022-12-07T03:18:29;27.20;;;20.17;;
5379;SDS011;2713;42.680;23.310;2022-12-07T03:21:00;32.83;;;20.43;;
5379;SDS011;2713;42.680;23.310;2022-12-07T03:23:32;30.50;;;19.70;;
5379;SDS011;2713;42.680;23.310;2022-12-07T03:26:01;34.00;;;20.67;;
5379;SDS011;2713;42.680;23.310;2022-12-07T03:28:32;31.30;;;20.27;;
5379;SDS011;2713;42.680;23.310;2022-12-07T03:31:05;32.17;;;20.40;;
5379;SDS011;2713;42.680;23.310;2022-12-07T03:33:40;35.83;;;21.73;;
5379;SDS011;2713;42.680;23.310;2022-12-07T03:36:11;33.57;;;20.37;;
5379;SDS011;2713;42.680;23.310;2022-12-07T03:38:44;34.83;;;21.50;;
5379;SDS011;2713;42.680;23.310;2022-12-07T03:41:14;32.73;;;21.10;;
5379;SDS011;2713;42.680;23.310;2022-12-07T03:43:45;36.53;;;20.93;;
5379;SDS011;2713;42.680;23.310;2022-12-07T03:46:16;34.77;;;20.57;;
5379;SDS011;2713;42.680;23.310;2022-12-07T03:48:49;30.30;;;19.97;;
5379;SDS011;2713;42.680;23.310;2022-12-07T03:51:22;31.10;;;19.83;;
5379;SDS011;2713;42.680;23.310;2022-12-07T03:53:57;40.57;;;21.40;;
5379;SDS011;2713;42.680;23.310;2022-12-07T03:56:26;40.90;;;22.63;;
5379;SDS011;2713;42.680;23.310;2022-12-07T03:58:55;37.67;;;21.37;;
5379;SDS011;2713;42.680;23.310;2022-12-07T04:01:24;34.20;;;21.20;;
5379;SDS011;2713;42.680;23.310;2022-12-07T04:03:51;34.00;;;21.70;;
5379;SDS011;2713;42.680;23.310;2022-12-07T04:06:18;31.80;;;19.17;;
5379;SDS011;2713;42.680;23.310;2022-12-07T04:08:45;29.83;;;18.23;;
5379;SDS011;2713;42.680;23.310;2022-12-07T04:11:11;27.07;;;16.70;;
5379;SDS011;2713;42.680;23.310;2022-12-07T04:13:38;28.03;;;17.50;;
5379;SDS011;2713;42.680;23.310;2022-12-07T04:16:19;29.30;;;17.97;;
5379;SDS011;2713;42.680;23.310;2022-12-07T04:18:47;25.27;;;16.87;;
5379;SDS011;2713;42.680;23.310;2022-12-07T04:21:14;32.63;;;18.80;;
5379;SDS011;2713;42.680;23.310;2022-12-07T04:23:41;28.90;;;19.00;;
5379;SDS011;2713;42.680;23.310;2022-12-07T04:26:07;27.87;;;18.37;;
5379;SDS011;2713;42.680;23.310;2022-12-07T04:28:34;27.90;;;17.20;;
5379;SDS011;2713;42.680;23.310;2022-12-07T04:31:01;31.93;;;18.23;;
5379;SDS011;2713;42.680;23.310;2022-12-07T04:33:28;28.43;;;17.80;;
5379;SDS011;2713;42.680;23.310;2022-12-07T04:35:56;30.73;;;18.73;;
5379;SDS011;2713;42.680;23.310;2022-12-07T04:38:23;30.73;;;19.50;;
5379;SDS011;2713;42.680;23.310;2022-12-07T04:40:50;30.40;;;18.30;;
5379;SDS011;2713;42.680;23.310;2022-12-07T04:43:17;29.23;;;18.33;;
5379;SDS011;2713;42.680;23.310;2022-12-07T04:45:45;29.30;;;17.73;;
5379;SDS011;2713;42.680;23.310;2022-12-07T04:48:13;32.20;;;17.70;;
5379;SDS011;2713;42.680;23.310;2022-12-07T04:50:40;31.30;;;19.57;;
5379;SDS011;2713;42.680;23.310;2022-12-07T04:53:08;31.57;;;19.47;;
5379;SDS011;2713;42.680;23.310;2022-12-07T04:55:35;29.83;;;18.13;;
5379;SDS011;2713;42.680;23.310;2022-12-07T04:58:02;27.23;;;18.30;;
5379;SDS011;2713;42.680;23.310;2022-12-07T05:00:29;30.00;;;19.13;;
5379;SDS011;2713;42.680;23.310;2022-12-07T05:02:56;29.90;;;18.83;;
5379;SDS011;2713;42.680;23.310;2022-12-07T05:05:23;29.13;;;19.63;;
5379;SDS011;2713;42.680;23.310;2022-12-07T05:07:50;28.80;;;17.83;;
5379;SDS011;2713;42.680;23.310;2022-12-07T05:10:18;33.70;;;19.30;;
5379;SDS011;2713;42.680;23.310;2022-12-07T05:12:45;37.07;;;20.17;;
5379;SDS011;2713;42.680;23.310;2022-12-07T05:15:12;35.80;;;19.87;;
5379;SDS011;2713;42.680;23.310;2022-12-07T05:17:39;31.60;;;20.37;;
5379;SDS011;2713;42.680;23.310;2022-12-07T05:20:06;37.07;;;21.13;;
5379;SDS011;2713;42.680;23.310;2022-12-07T05:22:34;31.53;;;21.70;;
5379;SDS011;2713;42.680;23.310;2022-12-07T05:25:01;34.20;;;20.30;;
5379;SDS011;2713;42.680;23.310;2022-12-07T05:27:29;32.63;;;21.20;;
5379;SDS011;2713;42.680;23.310;2022-12-07T05:29:56;37.33;;;21.63;;
5379;SDS011;2713;42.680;23.310;2022-12-07T05:32:23;34.10;;;20.30;;
5379;SDS011;2713;42.680;23.310;2022-12-07T05:34:49;35.43;;;21.53;;
5379;SDS011;2713;42.680;23.310;2022-12-07T05:37:16;34.90;;;21.60;;
5379;SDS011;2713;42.680;23.310;2022-12-07T05:39:43;35.60;;;22.07;;
5379;SDS011;2713;42.680;23.310;2022-12-07T05:42:10;31.67;;;20.57;;
5379;SDS011;2713;42.680;23.310;2022-12-07T05:44:41;29.30;;;19.53;;
5379;SDS011;2713;42.680;23.310;2022-12-07T05:47:09;36.10;;;20.00;;
5379;SDS011;2713;42.680;23.310;2022-12-07T05:49:37;33.43;;;19.40;;
5379;SDS011;2713;42.680;23.310;2022-12-07T05:52:04;37.50;;;19.73;;
5379;SDS011;2713;42.680;23.310;2022-12-07T05:54:31;42.80;;;20.97;;
5379;SDS011;2713;42.680;23.310;2022-12-07T05:56:58;51.87;;;20.63;;
5379;SDS011;2713;42.680;23.310;2022-12-07T05:59:25;33.47;;;19.00;;
5379;SDS011;2713;42.680;23.310;2022-12-07T06:01:54;34.50;;;20.43;;
5379;SDS011;2713;42.680;23.310;2022-12-07T06:04:23;32.40;;;17.87;;
5379;SDS011;2713;42.680;23.310;2022-12-07T06:06:51;28.60;;;18.60;;
5379;SDS011;2713;42.680;23.310;2022-12-07T06:09:19;31.23;;;18.33;;
5379;SDS011;2713;42.680;23.310;2022-12-07T06:11:46;35.90;;;19.60;;
5379;SDS011;2713;42.680;23.310;2022-12-07T06:14:31;29.40;;;17.00;;
5379;SDS011;2713;42.680;23.310;2022-12-07T06:16:59;27.60;;;18.00;;
5379;SDS011;2713;42.680;23.310;2022-12-07T06:19:26;31.00;;;17.03;;
5379;SDS011;2713;42.680;23.310;2022-12-07T06:21:53;26.23;;;15.80;;
5379;SDS011;2713;42.680;23.310;2022-12-07T06:24:20;23.27;;;15.70;;
5379;SDS011;2713;42.680;23.310;2022-12-07T06:26:46;26.03;;;16.33;;
5379;SDS011;2713;42.680;23.310;2022-12-07T06:29:13;26.83;;;16.47;;
5379;SDS011;2713;42.680;23.310;2022-12-07T06:31:40;28.83;;;15.90;;
5379;SDS011;2713;42.680;23.310;2022-12-07T06:34:10;25.57;;;15.60;;
5379;SDS011;2713;42.680;23.310;2022-12-07T06:36:38;30.67;;;16.00;;
5379;SDS011;2713;42.680;23.310;2022-12-07T06:39:06;32.00;;;17.27;;
5379;SDS011;2713;42.680;23.310;2022-12-07T06:41:34;26.63;;;15.70;;
5379;SDS011;2713;42.680;23.310;2022-12-07T06:44:01;28.20;;;16.20;;
5379;SDS011;2713;42.680;23.310;2022-12-07T06:46:28;23.87;;;15.87;;
5379;SDS011;2713;42.680;23.310;2022-12-07T06:48:55;26.27;;;15.83;;
5379;SDS011;2713;42.680;23.310;2022-12-07T06:51:24;25.47;;;15.53;;
5379;SDS011;2713;42.680;23.310;2022-12-07T06:53:51;37.07;;;20.37;;
5379;SDS011;2713;42.680;23.310;2022-12-07T06:56:17;34.30;;;17.60;;
5379;SDS011;2713;42.680;23.310;2022-12-07T06:58:44;28.10;;;16.07;;
5379;SDS011;2713;42.680;23.310;2022-12-07T07:01:11;33.13;;;19.03;;
5379;SDS011;2713;42.680;23.310;2022-12-07T07:03:40;30.60;;;16.90;;
5379;SDS011;2713;42.680;23.310;2022-12-07T07:06:07;33.53;;;15.77;;
5379;SDS011;2713;42.680;23.310;2022-12-07T07:08:36;29.10;;;17.30;;
5379;SDS011;2713;42.680;23.310;2022-12-07T07:11:04;32.97;;;17.80;;
5379;SDS011;2713;42.680;23.310;2022-12-07T07:13:31;33.47;;;17.90;;
5379;SDS011;2713;42.680;23.310;2022-12-07T07:15:58;36.70;;;20.17;;
5379;SDS011;2713;42.680;23.310;2022-12-07T07:18:25;30.90;;;18.67;;
5379;SDS011;2713;42.680;23.310;2022-12-07T07:20:52;31.13;;;18.70;;
5379;SDS011;2713;42.680;23.310;2022-12-07T07:23:20;32.73;;;20.60;;
5379;SDS011;2713;42.680;23.310;2022-12-07T07:25:49;35.00;;;20.23;;
5379;SDS011;2713;42.680;23.310;2022-12-07T07:28:16;38.07;;;20.10;;
5379;SDS011;2713;42.680;23.310;2022-12-07T07:30:43;35.77;;;21.50;;
5379;SDS011;2713;42.680;23.310;2022-12-07T07:33:10;36.83;;;21.77;;
5379;SDS011;2713;42.680;23.310;2022-12-07T07:35:38;52.43;;;29.20;;
5379;SDS011;2713;42.680;23.310;2022-12-07T07:38:05;42.50;;;25.00;;
5379;SDS011;2713;42.680;23.310;2022-12-07T07:40:32;44.10;;;23.17;;
5379;SDS011;2713;42.680;23.310;2022-12-07T07:43:01;37.40;;;25.30;;
5379;SDS011;2713;42.680;23.310;2022-12-07T07:45:28;45.23;;;27.70;;
5379;SDS011;2713;42.680;23.310;2022-12-07T07:47:55;40.43;;;25.73;;
5379;SDS011;2713;42.680;23.310;2022-12-07T07:50:22;54.07;;;30.67;;
5379;SDS011;2713;42.680;23.310;2022-12-07T07:52:49;39.30;;;25.63;;
5379;SDS011;2713;42.680;23.310;2022-12-07T07:55:16;39.37;;;24.80;;
5379;SDS011;2713;42.680;23.310;2022-12-07T07:57:43;40.33;;;24.90;;
5379;SDS011;2713;42.680;23.310;2022-12-07T08:00:12;45.43;;;24.23;;
5379;SDS011;2713;42.680;23.310;2022-12-07T08:02:40;42.20;;;24.23;;
5379;SDS011;2713;42.680;23.310;2022-12-07T08:05:08;48.60;;;25.90;;
5379;SDS011;2713;42.680;23.310;2022-12-07T08:07:35;43.80;;;24.73;;
5379;SDS011;2713;42.680;23.310;2022-12-07T08:10:02;42.00;;;22.27;;
5379;SDS011;2713;42.680;23.310;2022-12-07T08:12:30;34.70;;;22.00;;
5379;SDS011;2713;42.680;23.310;2022-12-07T08:14:56;44.43;;;24.20;;
5379;SDS011;2713;42.680;23.310;2022-12-07T08:17:25;38.87;;;24.07;;
5379;SDS011;2713;42.680;23.310;2022-12-07T08:19:52;38.30;;;24.00;;
5379;SDS011;2713;42.680;23.310;2022-12-07T08:22:19;41.53;;;22.80;;
5379;SDS011;2713;42.680;23.310;2022-12-07T08:24:45;43.67;;;24.93;;
5379;SDS011;2713;42.680;23.310;2022-12-07T08:27:12;34.80;;;22.83;;
5379;SDS011;2713;42.680;23.310;2022-12-07T08:29:39;37.80;;;21.37;;
5379;SDS011;2713;42.680;23.310;2022-12-07T08:32:06;39.60;;;24.83;;
5379;SDS011;2713;42.680;23.310;2022-12-07T08:34:34;42.47;;;24.37;;
5379;SDS011;2713;42.680;23.310;2022-12-07T08:37:02;46.60;;;26.63;;
5379;SDS011;2713;42.680;23.310;2022-12-07T08:39:29;36.73;;;23.47;;
5379;SDS011;2713;42.680;23.310;2022-12-07T08:41:55;45.20;;;24.60;;
5379;SDS011;2713;42.680;23.310;2022-12-07T08:44:22;43.20;;;23.50;;
5379;SDS011;2713;42.680;23.310;2022-12-07T08:46:49;44.13;;;25.87;;
5379;SDS011;2713;42.680;23.310;2022-12-07T08:49:20;42.20;;;24.80;;
5379;SDS011;2713;42.680;23.310;2022-12-07T08:51:52;36.43;;;25.30;;
5379;SDS011;2713;42.680;23.310;2022-12-07T08:54:20;42.60;;;25.50;;
5379;SDS011;2713;42.680;23.310;2022-12-07T08:56:48;40.17;;;24.17;;
5379;SDS011;2713;42.680;23.310;2022-12-07T08:59:17;42.80;;;27.10;;
5379;SDS011;2713;42.680;23.310;2022-12-07T09:01:45;40.50;;;24.63;;
5379;SDS011;2713;42.680;23.310;2022-12-07T09:04:12;47.20;;;25.60;;
5379;SDS011;2713;42.680;23.310;2022-12-07T09:06:39;42.87;;;25.63;;
5379;SDS011;2713;42.680;23.310;2022-12-07T09:09:08;41.07;;;23.20;;
5379;SDS011;2713;42.680;23.310;2022-12-07T09:11:37;36.47;;;24.30;;
5379;SDS011;2713;42.680;23.310;2022-12-07T09:14:04;38.83;;;24.60;;
5379;SDS011;2713;42.680;23.310;2022-12-07T09:16:31;38.40;;;22.50;;
5379;SDS011;2713;42.680;23.310;2022-12-07T09:18:58;35.20;;;22.80;;
5379;SDS011;2713;42.680;23.310;2022-12-07T09:21:25;38.03;;;23.40;;
5379;SDS011;2713;42.680;23.310;2022-12-07T09:23:51;45.47;;;23.90;;
5379;SDS011;2713;42.680;23.310;2022-12-07T09:26:19;34.90;;;21.97;;
5379;SDS011;2713;42.680;23.310;2022-12-07T09:28:46;40.97;;;23.53;;
5379;SDS011;2713;42.680;23.310;2022-12-07T09:31:13;40.80;;;23.73;;
5379;SDS011;2713;42.680;23.310;2022-12-07T09:33:40;42.87;;;25.87;;
5379;SDS011;2713;42.680;23.310;2022-12-07T09:36:07;37.27;;;21.50;;
5379;SDS011;2713;42.680;23.310;2022-12-07T09:38:35;37.50;;;22.07;;
5379;SDS011;2713;42.680;23.310;2022-12-07T09:41:03;37.97;;;19.83;;
5379;SDS011;2713;42.680;23.310;2022-12-07T09:43:33;38.13;;;21.03;;
5379;SDS011;2713;42.680;23.310;2022-12-07T09:46:02;34.23;;;20.70;;
5379;SDS011;2713;42.680;23.310;2022-12-07T09:48:30;32.87;;;20.77;;
5379;SDS011;2713;42.680;23.310;2022-12-07T09:51:00;32.83;;;19.20;;
5379;SDS011;2713;42.680;23.310;2022-12-07T09:53:29;32.77;;;19.47;;
5379;SDS011;2713;42.680;23.310;2022-12-07T09:55:59;36.57;;;20.67;;
5379;SDS011;2713;42.680;23.310;2022-12-07T09:58:28;41.03;;;21.17;;
5379;SDS011;2713;42.680;23.310;2022-12-07T10:00:58;34.37;;;19.90;;
5379;SDS011;2713;42.680;23.310;2022-12-07T10:03:27;38.40;;;21.50;;
5379;SDS011;2713;42.680;23.310;2022-12-07T10:05:55;35.03;;;21.17;;
5379;SDS011;2713;42.680;23.310;2022-12-07T10:08:24;32.43;;;20.70;;
5379;SDS011;2713;42.680;23.310;2022-12-07T10:10:52;35.60;;;21.57;;
5379;SDS011;2713;42.680;23.310;2022-12-07T10:13:21;36.60;;;23.03;;
5379;SDS011;2713;42.680;23.310;2022-12-07T10:16:00;36.50;;;22.23;;
5379;SDS011;2713;42.680;23.310;2022-12-07T10:18:29;36.37;;;23.00;;
5379;SDS011;2713;42.680;23.310;2022-12-07T10:23:58;37.83;;;22.07;;
5379;SDS011;2713;42.680;23.310;2022-12-07T10:26:29;37.23;;;21.73;;
5379;SDS011;2713;42.680;23.310;2022-12-07T10:28:59;40.93;;;22.97;;
5379;SDS011;2713;42.680;23.310;2022-12-07T10:31:29;40.30;;;23.13;;
5379;SDS011;2713;42.680;23.310;2022-12-07T10:33:57;40.00;;;22.00;;
5379;SDS011;2713;42.680;23.310;2022-12-07T10:36:25;39.70;;;21.80;;
5379;SDS011;2713;42.680;23.310;2022-12-07T10:38:59;40.80;;;21.70;;
5379;SDS011;2713;42.680;23.310;2022-12-07T10:41:27;31.50;;;19.70;;
5379;SDS011;2713;42.680;23.310;2022-12-07T10:43:54;37.80;;;21.20;;
5379;SDS011;2713;42.680;23.310;2022-12-07T10:46:37;32.33;;;20.03;;
5379;SDS011;2713;42.680;23.310;2022-12-07T10:49:26;36.73;;;20.77;;
5379;SDS011;2713;42.680;23.310;2022-12-07T10:52:06;32.80;;;18.03;;
5379;SDS011;2713;42.680;23.310;2022-12-07T10:54:41;35.60;;;18.93;;
5379;SDS011;2713;42.680;23.310;2022-12-07T10:57:20;32.93;;;19.33;;
5379;SDS011;2713;42.680;23.310;2022-12-07T11:00:18;32.30;;;18.83;;
5379;SDS011;2713;42.680;23.310;2022-12-07T11:02:54;32.83;;;17.30;;
5379;SDS011;2713;42.680;23.310;2022-12-07T11:05:44;28.37;;;18.20;;
5379;SDS011;2713;42.680;23.310;2022-12-07T11:08:18;30.57;;;18.70;;
5379;SDS011;2713;42.680;23.310;2022-12-07T11:10:53;41.43;;;20.80;;
5379;SDS011;2713;42.680;23.310;2022-12-07T11:13:26;31.70;;;19.27;;
5379;SDS011;2713;42.680;23.310;2022-12-07T11:16:02;34.67;;;20.47;;
5379;SDS011;2713;42.680;23.310;2022-12-07T11:18:39;29.87;;;20.33;;
5379;SDS011;2713;42.680;23.310;2022-12-07T11:21:17;33.43;;;19.87;;
5379;SDS011;2713;42.680;23.310;2022-12-07T11:23:52;33.67;;;19.47;;
5379;SDS011;2713;42.680;23.310;2022-12-07T11:26:31;36.30;;;19.40;;
5379;SDS011;2713;42.680;23.310;2022-12-07T11:29:24;27.90;;;17.20;;
5379;SDS011;2713;42.680;23.310;2022-12-07T11:32:07;32.67;;;18.53;;
5379;SDS011;2713;42.680;23.310;2022-12-07T11:34:47;27.27;;;18.00;;
5379;SDS011;2713;42.680;23.310;2022-12-07T11:37:25;30.30;;;18.63;;
5379;SDS011;2713;42.680;23.310;2022-12-07T11:39:58;39.80;;;20.43;;
5379;SDS011;2713;42.680;23.310;2022-12-07T11:42:27;32.93;;;18.63;;
5379;SDS011;2713;42.680;23.310;2022-12-07T11:45:00;25.67;;;15.60;;
5379;SDS011;2713;42.680;23.310;2022-12-07T11:47:38;27.83;;;16.13;;
5379;SDS011;2713;42.680;23.310;2022-12-07T11:50:16;23.67;;;15.80;;
5379;SDS011;2713;42.680;23.310;2022-12-07T11:52:52;30.70;;;15.00;;
5379;SDS011;2713;42.680;23.310;2022-12-07T11:55:24;29.57;;;15.03;;
5379;SDS011;2713;42.680;23.310;2022-12-07T11:57:58;26.83;;;14.90;;
5379;SDS011;2713;42.680;23.310;2022-12-07T12:00:30;26.00;;;15.03;;
5379;SDS011;2713;42.680;23.310;2022-12-07T12:02:59;21.97;;;13.97;;
5379;SDS011;2713;42.680;23.310;2022-12-07T12:05:32;20.10;;;13.77;;
5379;SDS011;2713;42.680;23.310;2022-12-07T12:08:00;27.83;;;14.50;;
5379;SDS011;2713;42.680;23.310;2022-12-07T12:10:42;25.70;;;15.27;;
5379;SDS011;2713;42.680;23.310;2022-12-07T12:13:23;26.40;;;15.50;;
5379;SDS011;2713;42.680;23.310;2022-12-07T12:16:19;29.40;;;16.13;;
5379;SDS011;2713;42.680;23.310;2022-12-07T12:19:14;33.30;;;20.73;;
5379;SDS011;2713;42.680;23.310;2022-12-07T12:21:54;25.50;;;15.30;;
5379;SDS011;2713;42.680;23.310;2022-12-07T12:24:25;24.60;;;16.30;;
5379;SDS011;2713;42.680;23.310;2022-12-07T12:26:57;31.30;;;16.40;;
5379;SDS011;2713;42.680;23.310;2022-12-07T12:29:31;24.97;;;14.50;;
5379;SDS011;2713;42.680;23.310;2022-12-07T12:32:05;26.47;;;16.73;;
5379;SDS011;2713;42.680;23.310;2022-12-07T12:34:39;26.93;;;16.33;;
5379;SDS011;2713;42.680;23.310;2022-12-07T12:46:36;24.70;;;15.60;;
5379;SDS011;2713;42.680;23.310;2022-12-07T12:49:24;23.57;;;15.93;;
5379;SDS011;2713;42.680;23.310;2022-12-07T12:55:19;30.37;;;16.13;;
5379;SDS011;2713;42.680;23.310;2022-12-07T13:04:14;23.33;;;15.30;;
5379;SDS011;2713;42.680;23.310;2022-12-07T13:07:04;35.40;;;14.13;;
5379;SDS011;2713;42.680;23.310;2022-12-07T13:09:32;26.73;;;14.50;;
5379;SDS011;2713;42.680;23.310;2022-12-07T13:12:03;24.97;;;14.80;;
5379;SDS011;2713;42.680;23.310;2022-12-07T13:17:55;19.80;;;12.07;;
5379;SDS011;2713;42.680;23.310;2022-12-07T13:23:26;18.30;;;10.97;;
5379;SDS011;2713;42.680;23.310;2022-12-07T13:26:12;21.93;;;12.13;;
5379;SDS011;2713;42.680;23.310;2022-12-07T13:28:44;17.83;;;12.07;;
5379;SDS011;2713;42.680;23.310;2022-12-07T13:33:59;20.73;;;13.07;;
5379;SDS011;2713;42.680;23.310;2022-12-07T13:36:33;21.70;;;12.10;;
5379;SDS011;2713;42.680;23.310;2022-12-07T13:39:17;20.70;;;11.83;;
5379;SDS011;2713;42.680;23.310;2022-12-07T13:41:49;20.47;;;11.43;;
5379;SDS011;2713;42.680;23.310;2022-12-07T13:44:19;21.03;;;11.10;;
5379;SDS011;2713;42.680;23.310;2022-12-07T13:46:51;26.47;;;12.47;;
5379;SDS011;2713;42.680;23.310;2022-12-07T13:49:24;16.97;;;11.67;;
5379;SDS011;2713;42.680;23.310;2022-12-07T13:51:52;20.47;;;13.50;;
5379;SDS011;2713;42.680;23.310;2022-12-07T13:54:20;19.47;;;12.00;;
5379;SDS011;2713;42.680;23.310;2022-12-07T13:56:49;20.03;;;11.10;;
5379;SDS011;2713;42.680;23.310;2022-12-07T13:59:19;18.07;;;11.93;;
5379;SDS011;2713;42.680;23.310;2022-12-07T14:01:49;17.63;;;11.10;;
5379;SDS011;2713;42.680;23.310;2022-12-07T14:04:18;20.07;;;11.43;;
5379;SDS011;2713;42.680;23.310;2022-12-07T14:07:00;19.73;;;11.57;;
5379;SDS011;2713;42.680;23.310;2022-12-07T14:09:52;17.27;;;10.87;;
5379;SDS011;2713;42.680;23.310;2022-12-07T14:12:21;22.47;;;14.33;;
5379;SDS011;2713;42.680;23.310;2022-12-07T14:14:49;20.47;;;12.67;;
5379;SDS011;2713;42.680;23.310;2022-12-07T14:17:17;16.03;;;10.60;;
5379;SDS011;2713;42.680;23.310;2022-12-07T14:19:48;19.10;;;12.43;;
5379;SDS011;2713;42.680;23.310;2022-12-07T14:22:18;17.47;;;11.20;;
5379;SDS011;2713;42.680;23.310;2022-12-07T14:24:48;16.47;;;11.50;;
5379;SDS011;2713;42.680;23.310;2022-12-07T14:27:17;20.40;;;11.43;;
5379;SDS011;2713;42.680;23.310;2022-12-07T14:29:45;20.67;;;11.40;;
5379;SDS011;2713;42.680;23.310;2022-12-07T14:32:21;20.17;;;12.10;;
5379;SDS011;2713;42.680;23.310;2022-12-07T14:34:57;17.40;;;11.57;;
5379;SDS011;2713;42.680;23.310;2022-12-07T14:37:26;18.63;;;11.47;;
5379;SDS011;2713;42.680;23.310;2022-12-07T14:39:54;19.27;;;11.53;;
5379;SDS011;2713;42.680;23.310;2022-12-07T14:42:21;20.30;;;12.80;;
5379;SDS011;2713;42.680;23.310;2022-12-07T14:44:52;17.33;;;12.47;;
5379;SDS011;2713;42.680;23.310;2022-12-07T14:47:20;24.33;;;15.47;;
5379;SDS011;2713;42.680;23.310;2022-12-07T14:49:47;36.47;;;24.20;;
5379;SDS011;2713;42.680;23.310;2022-12-07T14:52:15;24.23;;;15.10;;
5379;SDS011;2713;42.680;23.310;2022-12-07T14:54:44;26.70;;;12.97;;
5379;SDS011;2713;42.680;23.310;2022-12-07T14:57:11;22.37;;;12.63;;
5379;SDS011;2713;42.680;23.310;2022-12-07T14:59:38;27.43;;;12.70;;
5379;SDS011;2713;42.680;23.310;2022-12-07T15:02:05;22.87;;;14.43;;
5379;SDS011;2713;42.680;23.310;2022-12-07T15:04:34;26.60;;;13.40;;
5379;SDS011;2713;42.680;23.310;2022-12-07T15:07:02;22.50;;;15.00;;
5379;SDS011;2713;42.680;23.310;2022-12-07T15:09:32;20.53;;;13.30;;
5379;SDS011;2713;42.680;23.310;2022-12-07T15:11:58;25.37;;;13.73;;
5379;SDS011;2713;42.680;23.310;2022-12-07T15:14:25;21.90;;;14.60;;
5379;SDS011;2713;42.680;23.310;2022-12-07T15:16:52;21.63;;;13.37;;
5379;SDS011;2713;42.680;23.310;2022-12-07T15:19:19;28.53;;;14.53;;
5379;SDS011;2713;42.680;23.310;2022-12-07T15:21:50;31.70;;;15.23;;
5379;SDS011;2713;42.680;23.310;2022-12-07T15:24:17;23.00;;;13.87;;
5379;SDS011;2713;42.680;23.310;2022-12-07T15:26:44;28.23;;;15.23;;
5379;SDS011;2713;42.680;23.310;2022-12-07T15:29:11;27.27;;;14.27;;